sensor_id;sensor_type;location;lat;lon;timestamp;pressure;altitude;pressure_sealevel;temperature
61189;BMP280;47054;39.716;2.904;2023-06-22T00:01:21;99951.81;;;29.41
61189;BMP280;47054;39.716;2.904;2023-06-22T00:04:09;99953.31;;;29.42
61189;BMP280;47054;39.716;2.904;2023-06-22T00:06:54;99954.09;;;29.42
61189;BMP280;47054;39.716;2.904;2023-06-22T00:09:39;99945.59;;;29.40
61189;BMP280;47054;39.716;2.904;2023-06-22T00:12:25;99942.13;;;29.40
61189;BMP280;47054;39.716;2.904;2023-06-22T00:15:09;99948.03;;;29.38
61189;BMP280;47054;39.716;2.904;2023-06-22T00:17:54;99945.00;;;29.36
61189;BMP280;47054;39.716;2.904;2023-06-22T00:20:39;99952.47;;;29.36
61189;BMP280;47054;39.716;2.904;2023-06-22T00:23:24;99948.81;;;29.30
61189;BMP280;47054;39.716;2.904;2023-06-22T00:26:09;99954.84;;;29.34
61189;BMP280;47054;39.716;2.904;2023-06-22T00:28:55;99955.63;;;29.34
61189;BMP280;47054;39.716;2.904;2023-06-22T00:31:41;99956.81;;;29.33
61189;BMP280;47054;39.716;2.904;2023-06-22T00:34:25;99955.34;;;29.32
61189;BMP280;47054;39.716;2.904;2023-06-22T00:37:10;99957.31;;;29.32
61189;BMP280;47054;39.716;2.904;2023-06-22T00:39:55;99949.56;;;29.30
61189;BMP280;47054;39.716;2.904;2023-06-22T00:42:41;99962.94;;;29.28
61189;BMP280;47054;39.716;2.904;2023-06-22T00:45:26;99966.84;;;29.27
61189;BMP280;47054;39.716;2.904;2023-06-22T00:48:12;99962.66;;;29.26
61189;BMP280;47054;39.716;2.904;2023-06-22T00:50:56;99951.44;;;29.24
61189;BMP280;47054;39.716;2.904;2023-06-22T00:53:42;99950.81;;;29.20
61189;BMP280;47054;39.716;2.904;2023-06-22T00:56:28;99949.63;;;29.21
61189;BMP280;47054;39.716;2.904;2023-06-22T00:59:14;99953.69;;;29.17
61189;BMP280;47054;39.716;2.904;2023-06-22T01:02:01;99960.22;;;29.10
61189;BMP280;47054;39.716;2.904;2023-06-22T01:04:46;99952.22;;;29.06
61189;BMP280;47054;39.716;2.904;2023-06-22T01:11:04;99962.13;;;28.95
61189;BMP280;47054;39.716;2.904;2023-06-22T01:17:11;99956.81;;;28.73
61189;BMP280;47054;39.716;2.904;2023-06-22T01:19:58;99965.72;;;28.65
61189;BMP280;47054;39.716;2.904;2023-06-22T01:26:39;99977.06;;;28.45
61189;BMP280;47054;39.716;2.904;2023-06-22T01:29:27;99977.81;;;28.37
61189;BMP280;47054;39.716;2.904;2023-06-22T01:32:14;99979.19;;;28.32
61189;BMP280;47054;39.716;2.904;2023-06-22T01:35:03;99989.94;;;28.27
61189;BMP280;47054;39.716;2.904;2023-06-22T01:37:49;99989.16;;;28.17
61189;BMP280;47054;39.716;2.904;2023-06-22T01:40:37;99979.88;;;28.06
61189;BMP280;47054;39.716;2.904;2023-06-22T01:43:24;99987.72;;;28.04
61189;BMP280;47054;39.716;2.904;2023-06-22T01:46:09;99985.28;;;27.97
61189;BMP280;47054;39.716;2.904;2023-06-22T01:48:57;99980.88;;;27.90
61189;BMP280;47054;39.716;2.904;2023-06-22T01:51:41;99993.59;;;27.84
61189;BMP280;47054;39.716;2.904;2023-06-22T01:54:26;99992.63;;;27.78
61189;BMP280;47054;39.716;2.904;2023-06-22T01:57:11;100000.59;;;27.73
61189;BMP280;47054;39.716;2.904;2023-06-22T02:02:58;99994.66;;;27.65
61189;BMP280;47054;39.716;2.904;2023-06-22T02:05:59;99991.00;;;27.59
61189;BMP280;47054;39.716;2.904;2023-06-22T02:08:57;100006.44;;;27.53
61189;BMP280;47054;39.716;2.904;2023-06-22T02:11:45;100008.50;;;27.49
61189;BMP280;47054;39.716;2.904;2023-06-22T02:14:34;100001.22;;;27.46
61189;BMP280;47054;39.716;2.904;2023-06-22T02:17:20;100004.25;;;27.48
61189;BMP280;47054;39.716;2.904;2023-06-22T02:20:06;99998.06;;;27.47
61189;BMP280;47054;39.716;2.904;2023-06-22T02:22:57;100003.50;;;27.47
61189;BMP280;47054;39.716;2.904;2023-06-22T02:25:42;100008.50;;;27.49
61189;BMP280;47054;39.716;2.904;2023-06-22T02:28:30;100013.81;;;27.52
61189;BMP280;47054;39.716;2.904;2023-06-22T02:31:15;100013.38;;;27.54
61189;BMP280;47054;39.716;2.904;2023-06-22T02:34:00;100017.19;;;27.56
61189;BMP280;47054;39.716;2.904;2023-06-22T02:36:48;100017.50;;;27.58
61189;BMP280;47054;39.716;2.904;2023-06-22T02:39:36;100015.09;;;27.60
61189;BMP280;47054;39.716;2.904;2023-06-22T02:42:21;100009.19;;;27.62
61189;BMP280;47054;39.716;2.904;2023-06-22T02:45:08;100011.34;;;27.67
61189;BMP280;47054;39.716;2.904;2023-06-22T02:47:53;99991.16;;;27.55
61189;BMP280;47054;39.716;2.904;2023-06-22T02:50:38;100022.84;;;27.71
61189;BMP280;47054;39.716;2.904;2023-06-22T02:53:24;100008.03;;;27.72
61189;BMP280;47054;39.716;2.904;2023-06-22T02:56:09;100004.09;;;27.73
61189;BMP280;47054;39.716;2.904;2023-06-22T02:58:56;100013.34;;;27.76
61189;BMP280;47054;39.716;2.904;2023-06-22T03:01:45;100009.41;;;27.77
61189;BMP280;47054;39.716;2.904;2023-06-22T03:04:39;100019.13;;;27.78
61189;BMP280;47054;39.716;2.904;2023-06-22T03:07:23;100021.72;;;27.81
61189;BMP280;47054;39.716;2.904;2023-06-22T03:10:11;100023.19;;;27.82
61189;BMP280;47054;39.716;2.904;2023-06-22T03:12:56;100026.56;;;27.86
61189;BMP280;47054;39.716;2.904;2023-06-22T03:15:41;100030.06;;;27.87
61189;BMP280;47054;39.716;2.904;2023-06-22T03:18:27;100027.03;;;27.85
61189;BMP280;47054;39.716;2.904;2023-06-22T03:21:16;100034.31;;;27.88
61189;BMP280;47054;39.716;2.904;2023-06-22T03:24:01;100036.16;;;27.91
61189;BMP280;47054;39.716;2.904;2023-06-22T03:26:47;100035.66;;;27.92
61189;BMP280;47054;39.716;2.904;2023-06-22T03:29:31;100024.31;;;27.85
61189;BMP280;47054;39.716;2.904;2023-06-22T03:32:17;100037.66;;;27.92
61189;BMP280;47054;39.716;2.904;2023-06-22T03:35:02;100045.84;;;27.92
61189;BMP280;47054;39.716;2.904;2023-06-22T03:37:48;100048.56;;;27.92
61189;BMP280;47054;39.716;2.904;2023-06-22T03:40:32;100048.09;;;27.93
61189;BMP280;47054;39.716;2.904;2023-06-22T03:43:18;100050.84;;;27.93
61189;BMP280;47054;39.716;2.904;2023-06-22T03:46:03;100063.41;;;27.91
61189;BMP280;47054;39.716;2.904;2023-06-22T03:48:48;100069.09;;;27.84
61189;BMP280;47054;39.716;2.904;2023-06-22T03:51:33;100078.44;;;27.74
61189;BMP280;47054;39.716;2.904;2023-06-22T03:54:18;100074.00;;;27.67
61189;BMP280;47054;39.716;2.904;2023-06-22T03:57:03;100084.41;;;27.59
61189;BMP280;47054;39.716;2.904;2023-06-22T03:59:48;100093.09;;;27.54
61189;BMP280;47054;39.716;2.904;2023-06-22T04:02:34;100091.09;;;27.46
61189;BMP280;47054;39.716;2.904;2023-06-22T04:05:20;100094.81;;;27.39
61189;BMP280;47054;39.716;2.904;2023-06-22T04:08:05;100090.72;;;27.35
61189;BMP280;47054;39.716;2.904;2023-06-22T04:10:50;100081.59;;;27.29
61189;BMP280;47054;39.716;2.904;2023-06-22T04:13:34;100084.44;;;27.25
61189;BMP280;47054;39.716;2.904;2023-06-22T04:16:19;100079.53;;;27.20
61189;BMP280;47054;39.716;2.904;2023-06-22T04:19:04;100073.00;;;27.18
61189;BMP280;47054;39.716;2.904;2023-06-22T04:21:49;100068.13;;;27.13
61189;BMP280;47054;39.716;2.904;2023-06-22T04:24:35;100093.25;;;27.17
61189;BMP280;47054;39.716;2.904;2023-06-22T04:27:19;100097.06;;;27.19
61189;BMP280;47054;39.716;2.904;2023-06-22T04:30:08;100095.44;;;27.22
61189;BMP280;47054;39.716;2.904;2023-06-22T04:32:54;100095.44;;;27.22
61189;BMP280;47054;39.716;2.904;2023-06-22T04:35:44;100091.34;;;27.26
61189;BMP280;47054;39.716;2.904;2023-06-22T04:38:29;100094.44;;;27.28
61189;BMP280;47054;39.716;2.904;2023-06-22T04:41:18;100091.59;;;27.32
61189;BMP280;47054;39.716;2.904;2023-06-22T04:44:28;100091.00;;;27.37
61189;BMP280;47054;39.716;2.904;2023-06-22T04:47:12;100085.56;;;27.37
61189;BMP280;47054;39.716;2.904;2023-06-22T04:49:58;100080.88;;;27.37
61189;BMP280;47054;39.716;2.904;2023-06-22T04:52:43;100079.25;;;27.40
61189;BMP280;47054;39.716;2.904;2023-06-22T04:55:28;100072.91;;;27.43
61189;BMP280;47054;39.716;2.904;2023-06-22T19:32:01;100676.59;;;31.27
61189;BMP280;47054;39.716;2.904;2023-06-22T19:34:47;100674.31;;;31.52
61189;BMP280;47054;39.716;2.904;2023-06-22T19:37:32;100673.22;;;31.68
61189;BMP280;47054;39.716;2.904;2023-06-22T19:40:17;100687.03;;;31.82
61189;BMP280;47054;39.716;2.904;2023-06-22T19:43:02;100697.22;;;31.91
61189;BMP280;47054;39.716;2.904;2023-06-22T19:45:50;100698.56;;;31.95
61189;BMP280;47054;39.716;2.904;2023-06-22T19:48:35;100703.16;;;31.98
61189;BMP280;47054;39.716;2.904;2023-06-22T19:51:21;100701.91;;;31.99
61189;BMP280;47054;39.716;2.904;2023-06-22T19:54:09;100702.84;;;31.96
61189;BMP280;47054;39.716;2.904;2023-06-22T19:56:56;100718.09;;;31.97
61189;BMP280;47054;39.716;2.904;2023-06-22T19:59:40;100719.94;;;31.91
61189;BMP280;47054;39.716;2.904;2023-06-22T20:02:26;100727.59;;;31.87
61189;BMP280;47054;39.716;2.904;2023-06-22T20:05:12;100727.41;;;31.82
61189;BMP280;47054;39.716;2.904;2023-06-22T20:08:02;100737.03;;;31.77
61189;BMP280;47054;39.716;2.904;2023-06-22T20:10:47;100744.03;;;31.69
61189;BMP280;47054;39.716;2.904;2023-06-22T20:13:32;100747.38;;;31.64
61189;BMP280;47054;39.716;2.904;2023-06-22T20:16:16;100743.13;;;31.54
61189;BMP280;47054;39.716;2.904;2023-06-22T20:19:11;100756.25;;;31.59
61189;BMP280;47054;39.716;2.904;2023-06-22T20:22:06;100756.84;;;31.54
61189;BMP280;47054;39.716;2.904;2023-06-22T20:24:53;100764.94;;;31.49
61189;BMP280;47054;39.716;2.904;2023-06-22T20:27:42;100766.63;;;31.46
61189;BMP280;47054;39.716;2.904;2023-06-22T20:30:27;100776.63;;;31.40
61189;BMP280;47054;39.716;2.904;2023-06-22T20:33:16;100780.59;;;31.39
61189;BMP280;47054;39.716;2.904;2023-06-22T20:36:01;100786.41;;;31.32
61189;BMP280;47054;39.716;2.904;2023-06-22T20:38:47;100798.25;;;31.29
61189;BMP280;47054;39.716;2.904;2023-06-22T20:41:33;100799.63;;;31.25
61189;BMP280;47054;39.716;2.904;2023-06-22T20:44:18;100799.75;;;31.21
61189;BMP280;47054;39.716;2.904;2023-06-22T20:47:03;100809.66;;;31.19
61189;BMP280;47054;39.716;2.904;2023-06-22T20:49:49;100806.44;;;31.11
61189;BMP280;47054;39.716;2.904;2023-06-22T20:52:35;100809.81;;;31.15
61189;BMP280;47054;39.716;2.904;2023-06-22T20:55:19;100809.97;;;31.12
61189;BMP280;47054;39.716;2.904;2023-06-22T20:58:07;100820.56;;;31.10
61189;BMP280;47054;39.716;2.904;2023-06-22T21:00:53;100827.00;;;31.07
61189;BMP280;47054;39.716;2.904;2023-06-22T21:03:39;100827.56;;;31.02
61189;BMP280;47054;39.716;2.904;2023-06-22T21:06:24;100828.94;;;30.97
61189;BMP280;47054;39.716;2.904;2023-06-22T21:09:08;100832.25;;;30.92
61189;BMP280;47054;39.716;2.904;2023-06-22T21:11:54;100843.34;;;30.89
61189;BMP280;47054;39.716;2.904;2023-06-22T21:14:39;100846.97;;;30.86
61189;BMP280;47054;39.716;2.904;2023-06-22T21:17:24;100846.81;;;30.80
61189;BMP280;47054;39.716;2.904;2023-06-22T21:20:09;100847.72;;;30.77
61189;BMP280;47054;39.716;2.904;2023-06-22T21:22:54;100849.84;;;30.73
61189;BMP280;47054;39.716;2.904;2023-06-22T21:25:39;100855.72;;;30.71
61189;BMP280;47054;39.716;2.904;2023-06-22T21:28:26;100852.38;;;30.67
61189;BMP280;47054;39.716;2.904;2023-06-22T21:31:11;100847.91;;;30.61
61189;BMP280;47054;39.716;2.904;2023-06-22T21:33:55;100844.88;;;30.59
61189;BMP280;47054;39.716;2.904;2023-06-22T21:36:41;100852.03;;;30.56
61189;BMP280;47054;39.716;2.904;2023-06-22T21:39:26;100845.59;;;30.50
61189;BMP280;47054;39.716;2.904;2023-06-22T21:42:11;100857.75;;;30.49
61189;BMP280;47054;39.716;2.904;2023-06-22T21:44:56;100859.88;;;30.45
61189;BMP280;47054;39.716;2.904;2023-06-22T21:47:40;100849.63;;;30.37
61189;BMP280;47054;39.716;2.904;2023-06-22T21:50:25;100866.38;;;30.39
61189;BMP280;47054;39.716;2.904;2023-06-22T21:53:09;100861.47;;;30.34
61189;BMP280;47054;39.716;2.904;2023-06-22T21:55:54;100868.59;;;30.31
61189;BMP280;47054;39.716;2.904;2023-06-22T21:58:38;100866.75;;;30.28
61189;BMP280;47054;39.716;2.904;2023-06-22T22:01:23;100865.69;;;30.26
61189;BMP280;47054;39.716;2.904;2023-06-22T22:04:08;100868.53;;;30.22
61189;BMP280;47054;39.716;2.904;2023-06-22T22:06:53;100876.41;;;30.20
61189;BMP280;47054;39.716;2.904;2023-06-22T22:09:37;100874.88;;;30.19
61189;BMP280;47054;39.716;2.904;2023-06-22T22:12:22;100867.25;;;30.14
61189;BMP280;47054;39.716;2.904;2023-06-22T22:15:07;100878.97;;;30.15
61189;BMP280;47054;39.716;2.904;2023-06-22T22:17:52;100884.06;;;30.13
61189;BMP280;47054;39.716;2.904;2023-06-22T22:20:36;100876.00;;;30.09
61189;BMP280;47054;39.716;2.904;2023-06-22T22:23:21;100876.91;;;30.06
61189;BMP280;47054;39.716;2.904;2023-06-22T22:26:07;100885.22;;;30.03
61189;BMP280;47054;39.716;2.904;2023-06-22T22:28:52;100889.31;;;29.98
61189;BMP280;47054;39.716;2.904;2023-06-22T22:31:36;100892.47;;;29.97
61189;BMP280;47054;39.716;2.904;2023-06-22T22:34:24;100889.09;;;29.93
61189;BMP280;47054;39.716;2.904;2023-06-22T22:37:09;100893.47;;;29.90
61189;BMP280;47054;39.716;2.904;2023-06-22T22:39:53;100893.59;;;29.87
61189;BMP280;47054;39.716;2.904;2023-06-22T22:42:39;100893.25;;;29.85
61189;BMP280;47054;39.716;2.904;2023-06-22T22:45:23;100903.88;;;29.83
61189;BMP280;47054;39.716;2.904;2023-06-22T22:48:09;100905.53;;;29.80
61189;BMP280;47054;39.716;2.904;2023-06-22T22:50:54;100903.22;;;29.79
61189;BMP280;47054;39.716;2.904;2023-06-22T22:53:39;100895.94;;;29.76
61189;BMP280;47054;39.716;2.904;2023-06-22T22:56:25;100899.53;;;29.73
61189;BMP280;47054;39.716;2.904;2023-06-22T22:59:09;100903.47;;;29.72
61189;BMP280;47054;39.716;2.904;2023-06-22T23:01:54;100900.84;;;29.68
61189;BMP280;47054;39.716;2.904;2023-06-22T23:04:38;100909.16;;;29.65
61189;BMP280;47054;39.716;2.904;2023-06-22T23:07:24;100898.47;;;29.58
61189;BMP280;47054;39.716;2.904;2023-06-22T23:10:12;100910.91;;;29.59
61189;BMP280;47054;39.716;2.904;2023-06-22T23:12:57;100891.13;;;29.55
61189;BMP280;47054;39.716;2.904;2023-06-22T23:15:42;100899.44;;;29.51
61189;BMP280;47054;39.716;2.904;2023-06-22T23:18:27;100899.44;;;29.51
61189;BMP280;47054;39.716;2.904;2023-06-22T23:21:12;100905.78;;;29.48
61189;BMP280;47054;39.716;2.904;2023-06-22T23:23:57;100902.09;;;29.42
61189;BMP280;47054;39.716;2.904;2023-06-22T23:26:41;100903.28;;;29.41
61189;BMP280;47054;39.716;2.904;2023-06-22T23:29:28;100903.84;;;29.36
61189;BMP280;47054;39.716;2.904;2023-06-22T23:32:12;100908.66;;;29.32
61189;BMP280;47054;39.716;2.904;2023-06-22T23:34:59;100906.34;;;29.31
61189;BMP280;47054;39.716;2.904;2023-06-22T23:37:43;100908.44;;;29.27
61189;BMP280;47054;39.716;2.904;2023-06-22T23:40:31;100913.16;;;29.26
61189;BMP280;47054;39.716;2.904;2023-06-22T23:43:17;100907.00;;;29.22
61189;BMP280;47054;39.716;2.904;2023-06-22T23:46:03;100903.63;;;29.18
61189;BMP280;47054;39.716;2.904;2023-06-22T23:48:48;100905.59;;;29.18
61189;BMP280;47054;39.716;2.904;2023-06-22T23:51:33;100909.19;;;29.15
61189;BMP280;47054;39.716;2.904;2023-06-22T23:54:19;100912.78;;;29.12
61189;BMP280;47054;39.716;2.904;2023-06-22T23:57:04;100908.63;;;29.07
61189;BMP280;47054;39.716;2.904;2023-06-22T23:59:50;100902.50;;;29.03
